sensor_id;sensor_type;location;lat;lon;timestamp;pressure;altitude;pressure_sealevel;temperature;humidity
5954;BME280;3002;42.642;24.812;2022-10-16T00:01:22;97155.50;;;12.44;95.71
5954;BME280;3002;42.642;24.812;2022-10-16T00:03:48;97156.03;;;12.12;97.97
5954;BME280;3002;42.642;24.812;2022-10-16T00:06:15;97154.81;;;12.28;97.86
5954;BME280;3002;42.642;24.812;2022-10-16T00:08:41;97149.97;;;12.30;97.06
5954;BME280;3002;42.642;24.812;2022-10-16T00:11:10;97147.28;;;12.30;97.38
5954;BME280;3002;42.642;24.812;2022-10-16T00:13:37;97154.81;;;12.28;98.57
5954;BME280;3002;42.642;24.812;2022-10-16T00:16:03;97156.97;;;12.31;98.72
5954;BME280;3002;42.642;24.812;2022-10-16T00:18:33;97161.13;;;12.48;97.25
5954;BME280;3002;42.642;24.812;2022-10-16T00:21:13;97165.59;;;12.23;99.06
5954;BME280;3002;42.642;24.812;2022-10-16T00:23:40;97166.03;;;12.01;100.00
5954;BME280;3002;42.642;24.812;2022-10-16T00:26:11;97173.84;;;11.38;100.00
5954;BME280;3002;42.642;24.812;2022-10-16T00:28:37;97169.41;;;11.68;100.00
5954;BME280;3002;42.642;24.812;2022-10-16T00:31:09;97174.75;;;12.22;100.00
5954;BME280;3002;42.642;24.812;2022-10-16T00:33:36;97170.59;;;12.06;100.00
5954;BME280;3002;42.642;24.812;2022-10-16T00:36:03;97171.25;;;11.83;100.00
5954;BME280;3002;42.642;24.812;2022-10-16T00:38:29;97181.91;;;11.98;100.00
5954;BME280;3002;42.642;24.812;2022-10-16T00:40:55;97174.47;;;11.79;100.00
5954;BME280;3002;42.642;24.812;2022-10-16T00:43:49;97182.22;;;11.91;100.00
5954;BME280;3002;42.642;24.812;2022-10-16T00:48:48;97185.72;;;11.87;100.00
5954;BME280;3002;42.642;24.812;2022-10-16T00:51:17;97191.09;;;11.92;100.00
5954;BME280;3002;42.642;24.812;2022-10-16T00:53:44;97187.53;;;12.01;100.00
5954;BME280;3002;42.642;24.812;2022-10-16T00:56:10;97181.22;;;12.21;100.00
5954;BME280;3002;42.642;24.812;2022-10-16T00:58:36;97185.44;;;12.32;98.46
5954;BME280;3002;42.642;24.812;2022-10-16T01:01:01;97186.69;;;12.45;97.59
5954;BME280;3002;42.642;24.812;2022-10-16T01:03:31;97199.66;;;12.72;93.72
5954;BME280;3002;42.642;24.812;2022-10-16T01:06:33;97199.59;;;13.06;90.59
5954;BME280;3002;42.642;24.812;2022-10-16T01:09:30;97197.84;;;13.26;88.65
5954;BME280;3002;42.642;24.812;2022-10-16T01:12:14;97205.53;;;13.37;87.66
5954;BME280;3002;42.642;24.812;2022-10-16T01:14:48;97197.31;;;13.19;89.31
5954;BME280;3002;42.642;24.812;2022-10-16T01:17:46;97197.66;;;13.12;90.95
5954;BME280;3002;42.642;24.812;2022-10-16T01:20:22;97192.88;;;13.09;92.34
5954;BME280;3002;42.642;24.812;2022-10-16T01:25:55;97195.00;;;13.36;89.84
5954;BME280;3002;42.642;24.812;2022-10-16T01:28:29;97203.72;;;13.52;86.79
5954;BME280;3002;42.642;24.812;2022-10-16T01:30:59;97207.91;;;13.63;85.43
5954;BME280;3002;42.642;24.812;2022-10-16T01:33:39;97204.47;;;13.33;87.79
5954;BME280;3002;42.642;24.812;2022-10-16T01:36:13;97213.00;;;13.41;89.05
5954;BME280;3002;42.642;24.812;2022-10-16T01:38:40;97212.97;;;13.17;92.66
5954;BME280;3002;42.642;24.812;2022-10-16T01:41:14;97193.94;;;13.08;94.54
5954;BME280;3002;42.642;24.812;2022-10-16T01:44:14;97210.44;;;12.72;98.00
5954;BME280;3002;42.642;24.812;2022-10-16T01:46:43;97215.91;;;13.20;94.81
5954;BME280;3002;42.642;24.812;2022-10-16T01:49:11;97211.09;;;12.88;99.79
5954;BME280;3002;42.642;24.812;2022-10-16T01:51:37;97204.56;;;12.65;100.00
5954;BME280;3002;42.642;24.812;2022-10-16T01:54:05;97200.97;;;12.75;100.00
5954;BME280;3002;42.642;24.812;2022-10-16T01:56:32;97195.13;;;12.97;99.29
5954;BME280;3002;42.642;24.812;2022-10-16T01:59:00;97202.13;;;12.98;96.42
5954;BME280;3002;42.642;24.812;2022-10-16T02:01:30;97198.47;;;13.12;92.59
5954;BME280;3002;42.642;24.812;2022-10-16T02:04:01;97199.03;;;13.38;88.96
5954;BME280;3002;42.642;24.812;2022-10-16T02:06:27;97201.16;;;13.42;87.09
5954;BME280;3002;42.642;24.812;2022-10-16T02:08:54;97201.34;;;13.26;86.93
5954;BME280;3002;42.642;24.812;2022-10-16T02:11:20;97201.91;;;13.47;83.36
5954;BME280;3002;42.642;24.812;2022-10-16T02:13:48;97198.03;;;13.53;82.86
5954;BME280;3002;42.642;24.812;2022-10-16T02:16:16;97203.22;;;13.50;81.60
5954;BME280;3002;42.642;24.812;2022-10-16T02:18:43;97214.28;;;13.48;82.00
5954;BME280;3002;42.642;24.812;2022-10-16T02:21:17;97216.09;;;13.00;92.95
5954;BME280;3002;42.642;24.812;2022-10-16T02:26:15;97220.59;;;12.80;97.02
5954;BME280;3002;42.642;24.812;2022-10-16T02:28:49;97228.41;;;13.06;95.80
5954;BME280;3002;42.642;24.812;2022-10-16T02:31:23;97221.03;;;13.22;93.65
5954;BME280;3002;42.642;24.812;2022-10-16T02:33:54;97221.00;;;13.27;93.22
5954;BME280;3002;42.642;24.812;2022-10-16T02:36:21;97226.63;;;12.67;97.86
5954;BME280;3002;42.642;24.812;2022-10-16T02:38:47;97237.09;;;13.03;95.82
5954;BME280;3002;42.642;24.812;2022-10-16T02:41:13;97230.69;;;12.94;99.70
5954;BME280;3002;42.642;24.812;2022-10-16T02:43:39;97228.56;;;12.91;100.00
5954;BME280;3002;42.642;24.812;2022-10-16T02:46:05;97228.25;;;12.63;100.00
5954;BME280;3002;42.642;24.812;2022-10-16T02:48:31;97239.97;;;12.77;100.00
5954;BME280;3002;42.642;24.812;2022-10-16T02:50:56;97238.28;;;12.52;100.00
5954;BME280;3002;42.642;24.812;2022-10-16T02:53:22;97230.09;;;12.68;100.00
5954;BME280;3002;42.642;24.812;2022-10-16T02:55:48;97235.00;;;12.61;100.00
5954;BME280;3002;42.642;24.812;2022-10-16T02:58:13;97234.25;;;12.55;100.00
5954;BME280;3002;42.642;24.812;2022-10-16T03:00:39;97238.22;;;12.63;100.00
5954;BME280;3002;42.642;24.812;2022-10-16T03:03:04;97242.06;;;12.51;100.00
5954;BME280;3002;42.642;24.812;2022-10-16T03:05:30;97228.41;;;12.43;100.00
5954;BME280;3002;42.642;24.812;2022-10-16T03:07:55;97239.28;;;12.22;100.00
5954;BME280;3002;42.642;24.812;2022-10-16T03:10:21;97237.25;;;12.04;100.00
5954;BME280;3002;42.642;24.812;2022-10-16T03:12:46;97240.53;;;11.96;100.00
5954;BME280;3002;42.642;24.812;2022-10-16T03:15:12;97235.16;;;11.91;100.00
5954;BME280;3002;42.642;24.812;2022-10-16T03:17:37;97242.78;;;11.63;100.00
5954;BME280;3002;42.642;24.812;2022-10-16T03:20:03;97242.78;;;11.63;100.00
5954;BME280;3002;42.642;24.812;2022-10-16T03:22:29;97249.19;;;11.77;100.00
5954;BME280;3002;42.642;24.812;2022-10-16T03:24:54;97252.50;;;11.54;100.00
5954;BME280;3002;42.642;24.812;2022-10-16T03:27:20;97254.91;;;11.56;100.00
5954;BME280;3002;42.642;24.812;2022-10-16T03:29:45;97257.38;;;11.37;100.00
5954;BME280;3002;42.642;24.812;2022-10-16T03:32:11;97259.44;;;11.60;100.00
5954;BME280;3002;42.642;24.812;2022-10-16T03:34:36;97260.41;;;12.00;100.00
5954;BME280;3002;42.642;24.812;2022-10-16T03:37:02;97247.69;;;12.11;100.00
5954;BME280;3002;42.642;24.812;2022-10-16T03:39:28;97250.69;;;12.04;100.00
5954;BME280;3002;42.642;24.812;2022-10-16T03:41:53;97249.69;;;11.90;100.00
5954;BME280;3002;42.642;24.812;2022-10-16T03:44:18;97250.53;;;11.75;100.00
5954;BME280;3002;42.642;24.812;2022-10-16T03:46:44;97266.34;;;11.92;100.00
5954;BME280;3002;42.642;24.812;2022-10-16T03:49:09;97260.88;;;12.12;100.00
5954;BME280;3002;42.642;24.812;2022-10-16T03:51:35;97271.41;;;12.03;100.00
5954;BME280;3002;42.642;24.812;2022-10-16T03:54:00;97262.00;;;12.06;100.00
5954;BME280;3002;42.642;24.812;2022-10-16T03:56:26;97255.53;;;11.12;100.00
5954;BME280;3002;42.642;24.812;2022-10-16T03:58:51;97262.44;;;11.43;100.00
5954;BME280;3002;42.642;24.812;2022-10-16T04:01:17;97266.41;;;11.71;100.00
5954;BME280;3002;42.642;24.812;2022-10-16T04:03:42;97272.31;;;11.63;100.00
5954;BME280;3002;42.642;24.812;2022-10-16T04:06:08;97269.56;;;11.94;100.00
5954;BME280;3002;42.642;24.812;2022-10-16T04:08:34;97269.81;;;11.97;100.00
5954;BME280;3002;42.642;24.812;2022-10-16T04:11:02;97268.91;;;12.17;100.00
5954;BME280;3002;42.642;24.812;2022-10-16T04:13:27;97270.91;;;11.91;100.00
5954;BME280;3002;42.642;24.812;2022-10-16T04:15:53;97282.66;;;12.11;100.00
5954;BME280;3002;42.642;24.812;2022-10-16T04:18:18;97269.75;;;12.13;100.00
5954;BME280;3002;42.642;24.812;2022-10-16T04:20:44;97266.19;;;12.22;100.00
5954;BME280;3002;42.642;24.812;2022-10-16T04:23:09;97261.00;;;12.36;100.00
5954;BME280;3002;42.642;24.812;2022-10-16T04:25:35;97275.25;;;12.42;100.00
5954;BME280;3002;42.642;24.812;2022-10-16T04:28:00;97271.34;;;12.19;100.00
5954;BME280;3002;42.642;24.812;2022-10-16T04:30:26;97279.75;;;12.46;100.00
5954;BME280;3002;42.642;24.812;2022-10-16T04:32:52;97272.81;;;12.35;100.00
5954;BME280;3002;42.642;24.812;2022-10-16T04:35:18;97277.06;;;12.46;100.00
5954;BME280;3002;42.642;24.812;2022-10-16T04:37:44;97287.81;;;12.46;100.00
5954;BME280;3002;42.642;24.812;2022-10-16T04:40:10;97287.97;;;12.65;100.00
5954;BME280;3002;42.642;24.812;2022-10-16T04:42:35;97291.28;;;12.52;100.00
5954;BME280;3002;42.642;24.812;2022-10-16T04:45:01;97295.56;;;12.58;100.00
5954;BME280;3002;42.642;24.812;2022-10-16T04:47:27;97293.00;;;12.38;100.00
5954;BME280;3002;42.642;24.812;2022-10-16T04:49:52;97292.84;;;12.63;100.00
5954;BME280;3002;42.642;24.812;2022-10-16T04:52:18;97297.84;;;12.80;100.00
5954;BME280;3002;42.642;24.812;2022-10-16T04:54:44;97300.69;;;12.59;100.00
5954;BME280;3002;42.642;24.812;2022-10-16T04:57:10;97301.84;;;12.82;100.00
5954;BME280;3002;42.642;24.812;2022-10-16T04:59:36;97296.34;;;12.98;100.00
5954;BME280;3002;42.642;24.812;2022-10-16T05:02:02;97304.72;;;12.96;100.00
5954;BME280;3002;42.642;24.812;2022-10-16T05:04:28;97298.47;;;13.35;100.00
5954;BME280;3002;42.642;24.812;2022-10-16T05:06:53;97300.06;;;13.36;100.00
5954;BME280;3002;42.642;24.812;2022-10-16T05:09:19;97303.16;;;13.24;100.00
5954;BME280;3002;42.642;24.812;2022-10-16T05:11:44;97308.97;;;13.36;98.10
5954;BME280;3002;42.642;24.812;2022-10-16T05:14:10;97306.84;;;13.62;94.92
5954;BME280;3002;42.642;24.812;2022-10-16T05:16:35;97310.19;;;13.73;93.15
5954;BME280;3002;42.642;24.812;2022-10-16T05:19:00;97314.53;;;14.97;84.11
5954;BME280;3002;42.642;24.812;2022-10-16T05:21:26;97308.50;;;16.35;74.20
5954;BME280;3002;42.642;24.812;2022-10-16T05:23:53;97314.59;;;17.35;68.59
5954;BME280;3002;42.642;24.812;2022-10-16T05:26:19;97329.03;;;19.15;61.18
5954;BME280;3002;42.642;24.812;2022-10-16T05:28:44;97326.09;;;18.42;60.91
5954;BME280;3002;42.642;24.812;2022-10-16T05:31:10;97334.16;;;19.17;60.38
5954;BME280;3002;42.642;24.812;2022-10-16T05:33:35;97326.13;;;19.29;59.37
5954;BME280;3002;42.642;24.812;2022-10-16T05:36:05;97331.72;;;19.24;58.14
5954;BME280;3002;42.642;24.812;2022-10-16T05:38:33;97332.75;;;18.28;61.96
5954;BME280;3002;42.642;24.812;2022-10-16T05:40:58;97339.66;;;15.63;72.72
5954;BME280;3002;42.642;24.812;2022-10-16T05:43:24;97343.97;;;15.64;75.13
5954;BME280;3002;42.642;24.812;2022-10-16T05:45:56;97347.38;;;15.70;74.26
5954;BME280;3002;42.642;24.812;2022-10-16T05:48:23;97340.53;;;15.26;75.85
5954;BME280;3002;42.642;24.812;2022-10-16T05:50:48;97341.03;;;15.28;75.48
5954;BME280;3002;42.642;24.812;2022-10-16T05:53:13;97346.28;;;15.71;73.43
5954;BME280;3002;42.642;24.812;2022-10-16T05:55:39;97348.31;;;15.79;72.08
5954;BME280;3002;42.642;24.812;2022-10-16T05:58:04;97359.53;;;15.21;74.29
5954;BME280;3002;42.642;24.812;2022-10-16T06:00:30;97360.44;;;14.97;75.48
5954;BME280;3002;42.642;24.812;2022-10-16T06:02:55;97362.16;;;15.91;71.54
5954;BME280;3002;42.642;24.812;2022-10-16T06:05:21;97372.19;;;17.85;63.83
5954;BME280;3002;42.642;24.812;2022-10-16T06:07:46;97375.41;;;19.62;57.60
5954;BME280;3002;42.642;24.812;2022-10-16T06:10:11;97363.66;;;20.64;54.28
5954;BME280;3002;42.642;24.812;2022-10-16T06:12:37;97373.19;;;20.11;53.70
5954;BME280;3002;42.642;24.812;2022-10-16T06:15:03;97387.03;;;19.89;52.13
5954;BME280;3002;42.642;24.812;2022-10-16T06:17:28;97387.41;;;19.09;56.65
5954;BME280;3002;42.642;24.812;2022-10-16T06:19:54;97387.97;;;20.31;54.36
5954;BME280;3002;42.642;24.812;2022-10-16T06:22:19;97389.06;;;22.06;49.64
5954;BME280;3002;42.642;24.812;2022-10-16T06:24:45;97395.84;;;21.87;49.58
5954;BME280;3002;42.642;24.812;2022-10-16T06:27:11;97383.81;;;21.34;49.77
5954;BME280;3002;42.642;24.812;2022-10-16T06:29:37;97390.34;;;22.82;46.82
5954;BME280;3002;42.642;24.812;2022-10-16T06:32:02;97387.50;;;22.78;46.04
5954;BME280;3002;42.642;24.812;2022-10-16T06:34:27;97382.88;;;23.87;44.64
5954;BME280;3002;42.642;24.812;2022-10-16T06:36:53;97393.41;;;24.33;43.94
5954;BME280;3002;42.642;24.812;2022-10-16T06:39:18;97394.78;;;23.39;45.06
5954;BME280;3002;42.642;24.812;2022-10-16T06:41:45;97392.81;;;24.39;43.86
5954;BME280;3002;42.642;24.812;2022-10-16T06:44:10;97396.25;;;25.38;41.84
5954;BME280;3002;42.642;24.812;2022-10-16T06:46:36;97396.38;;;25.45;41.12
5954;BME280;3002;42.642;24.812;2022-10-16T06:49:01;97396.63;;;24.50;43.18
5954;BME280;3002;42.642;24.812;2022-10-16T06:51:27;97397.88;;;23.77;44.08
5954;BME280;3002;42.642;24.812;2022-10-16T06:53:55;97392.63;;;23.04;46.19
5954;BME280;3002;42.642;24.812;2022-10-16T06:56:26;97391.25;;;21.46;49.75
5954;BME280;3002;42.642;24.812;2022-10-16T06:58:52;97395.13;;;21.45;50.07
5954;BME280;3002;42.642;24.812;2022-10-16T07:01:21;97394.44;;;19.45;53.72
5954;BME280;3002;42.642;24.812;2022-10-16T07:03:47;97402.56;;;21.57;50.42
5954;BME280;3002;42.642;24.812;2022-10-16T07:06:15;97409.06;;;23.72;45.41
5954;BME280;3002;42.642;24.812;2022-10-16T07:08:43;97398.69;;;24.10;44.00
5954;BME280;3002;42.642;24.812;2022-10-16T07:11:11;97405.66;;;21.55;49.40
5954;BME280;3002;42.642;24.812;2022-10-16T07:13:38;97405.16;;;24.33;44.54
5954;BME280;3002;42.642;24.812;2022-10-16T07:16:14;97409.09;;;25.53;40.83
5954;BME280;3002;42.642;24.812;2022-10-16T07:18:40;97407.19;;;25.73;41.33
5954;BME280;3002;42.642;24.812;2022-10-16T07:21:10;97421.75;;;26.88;40.04
5954;BME280;3002;42.642;24.812;2022-10-16T07:23:36;97417.97;;;27.27;38.88
5954;BME280;3002;42.642;24.812;2022-10-16T07:26:03;97425.75;;;27.17;39.24
5954;BME280;3002;42.642;24.812;2022-10-16T07:28:28;97415.19;;;27.23;39.02
5954;BME280;3002;42.642;24.812;2022-10-16T07:30:54;97417.38;;;27.70;38.10
5954;BME280;3002;42.642;24.812;2022-10-16T07:33:20;97409.28;;;27.85;37.96
5954;BME280;3002;42.642;24.812;2022-10-16T07:35:53;97411.41;;;28.43;36.11
5954;BME280;3002;42.642;24.812;2022-10-16T07:38:19;97416.53;;;27.36;38.57
5954;BME280;3002;42.642;24.812;2022-10-16T07:40:45;97411.41;;;27.68;38.74
5954;BME280;3002;42.642;24.812;2022-10-16T07:43:11;97408.00;;;26.88;39.28
5954;BME280;3002;42.642;24.812;2022-10-16T07:45:37;97410.13;;;25.45;41.34
5954;BME280;3002;42.642;24.812;2022-10-16T07:48:11;97413.78;;;26.34;40.32
5954;BME280;3002;42.642;24.812;2022-10-16T07:50:38;97417.03;;;28.13;37.38
5954;BME280;3002;42.642;24.812;2022-10-16T07:53:04;97417.72;;;26.82;39.27
5954;BME280;3002;42.642;24.812;2022-10-16T07:55:29;97415.25;;;27.94;37.64
5954;BME280;3002;42.642;24.812;2022-10-16T07:57:55;97423.88;;;26.49;41.24
5954;BME280;3002;42.642;24.812;2022-10-16T08:00:20;97426.44;;;26.61;39.38
5954;BME280;3002;42.642;24.812;2022-10-16T08:02:46;97422.38;;;26.78;38.92
5954;BME280;3002;42.642;24.812;2022-10-16T08:05:11;97419.47;;;25.79;40.08
5954;BME280;3002;42.642;24.812;2022-10-16T08:07:36;97419.44;;;24.54;42.31
5954;BME280;3002;42.642;24.812;2022-10-16T08:10:02;97411.16;;;26.64;37.87
5954;BME280;3002;42.642;24.812;2022-10-16T08:12:28;97414.53;;;26.54;38.17
5954;BME280;3002;42.642;24.812;2022-10-16T08:14:53;97413.78;;;27.36;36.67
5954;BME280;3002;42.642;24.812;2022-10-16T08:17:19;97405.25;;;28.16;35.31
5954;BME280;3002;42.642;24.812;2022-10-16T08:19:48;97415.38;;;28.01;35.94
5954;BME280;3002;42.642;24.812;2022-10-16T08:22:19;97411.97;;;27.81;35.13
5954;BME280;3002;42.642;24.812;2022-10-16T08:24:45;97414.81;;;28.29;33.78
5954;BME280;3002;42.642;24.812;2022-10-16T08:27:10;97410.31;;;29.02;32.49
5954;BME280;3002;42.642;24.812;2022-10-16T08:29:36;97410.84;;;28.67;32.72
5954;BME280;3002;42.642;24.812;2022-10-16T08:32:03;97408.72;;;26.59;35.39
5954;BME280;3002;42.642;24.812;2022-10-16T08:34:29;97402.97;;;28.69;32.69
5954;BME280;3002;42.642;24.812;2022-10-16T08:36:54;97406.69;;;27.35;34.28
5954;BME280;3002;42.642;24.812;2022-10-16T08:39:20;97414.81;;;28.70;34.36
5954;BME280;3002;42.642;24.812;2022-10-16T08:47:17;97427.19;;;27.38;33.82
5954;BME280;3002;42.642;24.812;2022-10-16T08:49:56;97418.25;;;28.15;32.84
5954;BME280;3002;42.642;24.812;2022-10-16T08:52:23;97412.91;;;27.92;33.04
5954;BME280;3002;42.642;24.812;2022-10-16T08:54:51;97418.00;;;28.31;32.41
5954;BME280;3002;42.642;24.812;2022-10-16T08:57:20;97427.84;;;27.01;34.41
5954;BME280;3002;42.642;24.812;2022-10-16T08:59:46;97425.03;;;27.54;32.80
5954;BME280;3002;42.642;24.812;2022-10-16T09:02:24;97425.00;;;26.98;34.03
5954;BME280;3002;42.642;24.812;2022-10-16T09:05:06;97414.91;;;24.78;36.88
5954;BME280;3002;42.642;24.812;2022-10-16T09:07:45;97417.72;;;25.52;36.53
5954;BME280;3002;42.642;24.812;2022-10-16T09:10:30;97423.69;;;27.41;33.44
5954;BME280;3002;42.642;24.812;2022-10-16T09:21:26;97417.50;;;27.51;32.62
5954;BME280;3002;42.642;24.812;2022-10-16T09:23:54;97410.84;;;26.23;34.54
5954;BME280;3002;42.642;24.812;2022-10-16T09:26:22;97412.31;;;26.17;34.88
5954;BME280;3002;42.642;24.812;2022-10-16T09:28:48;97407.16;;;25.93;35.34
5954;BME280;3002;42.642;24.812;2022-10-16T09:31:17;97396.28;;;28.26;31.36
5954;BME280;3002;42.642;24.812;2022-10-16T09:33:45;97385.94;;;27.45;32.20
5954;BME280;3002;42.642;24.812;2022-10-16T09:36:12;97391.97;;;28.28;31.57
5954;BME280;3002;42.642;24.812;2022-10-16T09:38:38;97392.19;;;29.05;30.64
5954;BME280;3002;42.642;24.812;2022-10-16T09:41:24;97391.69;;;28.00;30.99
5954;BME280;3002;42.642;24.812;2022-10-16T09:43:58;97383.97;;;27.76;31.76
5954;BME280;3002;42.642;24.812;2022-10-16T09:46:33;97385.66;;;27.87;32.15
5954;BME280;3002;42.642;24.812;2022-10-16T09:49:02;97382.81;;;28.65;30.73
5954;BME280;3002;42.642;24.812;2022-10-16T09:56:33;97372.19;;;28.19;31.38
5954;BME280;3002;42.642;24.812;2022-10-16T09:59:03;97373.75;;;27.12;33.12
5954;BME280;3002;42.642;24.812;2022-10-16T10:04:04;97374.84;;;27.38;33.05
5954;BME280;3002;42.642;24.812;2022-10-16T10:06:36;97374.63;;;27.84;33.21
5954;BME280;3002;42.642;24.812;2022-10-16T10:09:04;97371.38;;;29.22;30.66
5954;BME280;3002;42.642;24.812;2022-10-16T10:17:24;97365.75;;;30.34;30.64
5954;BME280;3002;42.642;24.812;2022-10-16T10:22:42;97359.38;;;28.93;30.82
5954;BME280;3002;42.642;24.812;2022-10-16T10:33:33;97343.13;;;29.57;30.21
5954;BME280;3002;42.642;24.812;2022-10-16T10:36:14;97343.53;;;29.70;29.68
5954;BME280;3002;42.642;24.812;2022-10-16T10:38:58;97342.03;;;30.33;29.16
5954;BME280;3002;42.642;24.812;2022-10-16T11:03:35;97327.09;;;29.08;30.73
5954;BME280;3002;42.642;24.812;2022-10-16T11:06:15;97326.56;;;29.75;30.78
5954;BME280;3002;42.642;24.812;2022-10-16T11:14:24;97321.81;;;28.85;30.40
5954;BME280;3002;42.642;24.812;2022-10-16T11:16:57;97311.31;;;29.04;29.89
5954;BME280;3002;42.642;24.812;2022-10-16T11:22:22;97315.75;;;28.58;29.95
5954;BME280;3002;42.642;24.812;2022-10-16T11:27:25;97307.09;;;28.11;30.96
5954;BME280;3002;42.642;24.812;2022-10-16T11:29:59;97319.09;;;30.54;29.53
5954;BME280;3002;42.642;24.812;2022-10-16T11:32:38;97311.16;;;30.81;26.92
5954;BME280;3002;42.642;24.812;2022-10-16T11:35:32;97316.25;;;31.88;27.57
5954;BME280;3002;42.642;24.812;2022-10-16T11:38:03;97320.91;;;31.32;26.63
5954;BME280;3002;42.642;24.812;2022-10-16T11:40:37;97322.56;;;31.08;27.54
5954;BME280;3002;42.642;24.812;2022-10-16T11:45:43;97320.13;;;32.53;26.09
5954;BME280;3002;42.642;24.812;2022-10-16T11:50:56;97312.28;;;32.41;26.51
5954;BME280;3002;42.642;24.812;2022-10-16T11:56:20;97299.94;;;31.16;26.92
5954;BME280;3002;42.642;24.812;2022-10-16T11:59:01;97305.59;;;28.76;29.94
5954;BME280;3002;42.642;24.812;2022-10-16T12:04:42;97312.34;;;28.82;29.61
5954;BME280;3002;42.642;24.812;2022-10-16T12:07:17;97308.78;;;29.86;28.34
5954;BME280;3002;42.642;24.812;2022-10-16T12:09:44;97310.66;;;31.14;26.60
5954;BME280;3002;42.642;24.812;2022-10-16T12:15:19;97309.66;;;31.64;27.07
5954;BME280;3002;42.642;24.812;2022-10-16T12:17:45;97311.25;;;32.69;25.45
5954;BME280;3002;42.642;24.812;2022-10-16T12:22:41;97313.16;;;30.73;27.34
5954;BME280;3002;42.642;24.812;2022-10-16T12:25:36;97321.72;;;32.50;25.93
5954;BME280;3002;42.642;24.812;2022-10-16T12:28:19;97315.50;;;32.32;25.92
5954;BME280;3002;42.642;24.812;2022-10-16T12:30:59;97315.50;;;32.39;26.00
5954;BME280;3002;42.642;24.812;2022-10-16T12:33:32;97329.59;;;32.56;25.37
5954;BME280;3002;42.642;24.812;2022-10-16T12:36:01;97317.03;;;31.88;26.54
5954;BME280;3002;42.642;24.812;2022-10-16T12:38:30;97315.31;;;28.04;29.79
5954;BME280;3002;42.642;24.812;2022-10-16T12:41:03;97317.63;;;32.14;26.41
5954;BME280;3002;42.642;24.812;2022-10-16T12:48:29;97320.13;;;31.21;27.66
5954;BME280;3002;42.642;24.812;2022-10-16T12:50:56;97317.78;;;31.19;26.98
5954;BME280;3002;42.642;24.812;2022-10-16T12:53:23;97318.63;;;29.66;27.81
5954;BME280;3002;42.642;24.812;2022-10-16T13:00:56;97321.28;;;31.37;26.28
5954;BME280;3002;42.642;24.812;2022-10-16T13:22:03;97335.47;;;31.47;27.04
5954;BME280;3002;42.642;24.812;2022-10-16T13:27:34;97329.31;;;31.03;27.32
5954;BME280;3002;42.642;24.812;2022-10-16T13:30:19;97333.50;;;32.62;26.20
5954;BME280;3002;42.642;24.812;2022-10-16T13:32:58;97325.84;;;34.53;23.60
5954;BME280;3002;42.642;24.812;2022-10-16T13:35:32;97329.59;;;35.29;23.22
5954;BME280;3002;42.642;24.812;2022-10-16T13:38:15;97324.88;;;32.94;24.66
5954;BME280;3002;42.642;24.812;2022-10-16T13:43:37;97329.31;;;34.37;23.67
5954;BME280;3002;42.642;24.812;2022-10-16T13:46:10;97325.63;;;34.44;22.68
5954;BME280;3002;42.642;24.812;2022-10-16T13:48:37;97337.00;;;34.53;23.35
5954;BME280;3002;42.642;24.812;2022-10-16T13:51:22;97338.31;;;33.94;23.53
5954;BME280;3002;42.642;24.812;2022-10-16T13:53:48;97338.34;;;31.29;25.30
5954;BME280;3002;42.642;24.812;2022-10-16T13:56:16;97338.09;;;30.73;26.50
5954;BME280;3002;42.642;24.812;2022-10-16T13:58:42;97331.16;;;29.39;27.33
5954;BME280;3002;42.642;24.812;2022-10-16T14:01:31;97349.28;;;31.57;26.65
5954;BME280;3002;42.642;24.812;2022-10-16T14:04:04;97345.41;;;29.41;28.94
5954;BME280;3002;42.642;24.812;2022-10-16T14:06:31;97340.38;;;29.64;27.95
5954;BME280;3002;42.642;24.812;2022-10-16T14:09:05;97332.94;;;27.21;28.74
5954;BME280;3002;42.642;24.812;2022-10-16T14:11:32;97341.81;;;29.29;27.98
5954;BME280;3002;42.642;24.812;2022-10-16T14:13:59;97337.31;;;30.12;26.85
5954;BME280;3002;42.642;24.812;2022-10-16T14:16:29;97348.34;;;30.80;25.89
5954;BME280;3002;42.642;24.812;2022-10-16T14:19:05;97341.88;;;27.82;28.73
5954;BME280;3002;42.642;24.812;2022-10-16T14:21:36;97345.94;;;28.33;27.00
5954;BME280;3002;42.642;24.812;2022-10-16T14:24:31;97356.66;;;28.45;27.19
5954;BME280;3002;42.642;24.812;2022-10-16T14:26:57;97348.03;;;26.48;27.37
5954;BME280;3002;42.642;24.812;2022-10-16T14:29:25;97351.03;;;27.23;26.29
5954;BME280;3002;42.642;24.812;2022-10-16T14:32:00;97356.03;;;25.88;27.55
5954;BME280;3002;42.642;24.812;2022-10-16T14:34:32;97344.22;;;27.43;26.69
5954;BME280;3002;42.642;24.812;2022-10-16T14:37:14;97358.09;;;26.63;26.30
5954;BME280;3002;42.642;24.812;2022-10-16T14:39:49;97353.53;;;27.05;25.96
5954;BME280;3002;42.642;24.812;2022-10-16T14:42:17;97347.53;;;25.16;27.46
5954;BME280;3002;42.642;24.812;2022-10-16T14:44:44;97358.34;;;25.67;26.72
5954;BME280;3002;42.642;24.812;2022-10-16T14:47:16;97363.34;;;25.80;27.02
5954;BME280;3002;42.642;24.812;2022-10-16T14:49:47;97355.03;;;24.01;28.89
5954;BME280;3002;42.642;24.812;2022-10-16T14:52:12;97357.13;;;23.20;29.51
5954;BME280;3002;42.642;24.812;2022-10-16T14:54:39;97361.31;;;22.53;30.67
5954;BME280;3002;42.642;24.812;2022-10-16T14:57:05;97366.13;;;22.31;31.40
5954;BME280;3002;42.642;24.812;2022-10-16T14:59:40;97369.00;;;21.77;33.28
5954;BME280;3002;42.642;24.812;2022-10-16T15:04:50;97369.53;;;22.16;32.70
5954;BME280;3002;42.642;24.812;2022-10-16T15:07:15;97361.41;;;20.87;33.42
5954;BME280;3002;42.642;24.812;2022-10-16T15:09:41;97362.59;;;21.19;34.31
5954;BME280;3002;42.642;24.812;2022-10-16T15:12:06;97364.94;;;21.08;33.72
5954;BME280;3002;42.642;24.812;2022-10-16T15:14:32;97362.06;;;20.63;35.38
5954;BME280;3002;42.642;24.812;2022-10-16T15:16:57;97369.22;;;20.68;34.81
5954;BME280;3002;42.642;24.812;2022-10-16T15:19:23;97364.97;;;20.79;34.48
5954;BME280;3002;42.642;24.812;2022-10-16T15:21:48;97374.06;;;21.67;34.40
5954;BME280;3002;42.642;24.812;2022-10-16T15:24:15;97366.94;;;21.41;34.66
5954;BME280;3002;42.642;24.812;2022-10-16T15:26:40;97378.16;;;21.60;34.81
5954;BME280;3002;42.642;24.812;2022-10-16T15:29:06;97373.03;;;20.96;34.53
5954;BME280;3002;42.642;24.812;2022-10-16T15:31:32;97379.63;;;21.16;35.19